sensor_id;sensor_type;location;lat;lon;timestamp;P1;durP1;ratioP1;P2;durP2;ratioP2
37645;SDS011;23489;49.600;6.138;2022-11-06T00:01:21;8.32;;;4.55;;
37645;SDS011;23489;49.600;6.138;2022-11-06T00:03:47;8.95;;;4.38;;
37645;SDS011;23489;49.600;6.138;2022-11-06T00:06:15;6.43;;;4.30;;
37645;SDS011;23489;49.600;6.138;2022-11-06T00:09:02;11.85;;;4.40;;
37645;SDS011;23489;49.600;6.138;2022-11-06T00:11:29;9.50;;;5.07;;
37645;SDS011;23489;49.600;6.138;2022-11-06T00:13:55;8.32;;;4.72;;
37645;SDS011;23489;49.600;6.138;2022-11-06T00:16:21;9.20;;;4.60;;
37645;SDS011;23489;49.600;6.138;2022-11-06T00:18:47;8.77;;;4.97;;
37645;SDS011;23489;49.600;6.138;2022-11-06T00:21:21;6.25;;;4.57;;
37645;SDS011;23489;49.600;6.138;2022-11-06T00:23:48;10.98;;;5.03;;
37645;SDS011;23489;49.600;6.138;2022-11-06T00:26:16;10.40;;;5.20;;
37645;SDS011;23489;49.600;6.138;2022-11-06T00:28:43;9.40;;;5.25;;
37645;SDS011;23489;49.600;6.138;2022-11-06T00:31:14;8.45;;;5.20;;
37645;SDS011;23489;49.600;6.138;2022-11-06T00:33:41;8.15;;;5.40;;
37645;SDS011;23489;49.600;6.138;2022-11-06T00:36:09;10.07;;;5.35;;
37645;SDS011;23489;49.600;6.138;2022-11-06T00:38:37;9.48;;;5.50;;
37645;SDS011;23489;49.600;6.138;2022-11-06T00:41:03;8.30;;;5.22;;
37645;SDS011;23489;49.600;6.138;2022-11-06T00:43:33;8.25;;;5.55;;
37645;SDS011;23489;49.600;6.138;2022-11-06T00:46:03;11.10;;;5.82;;
37645;SDS011;23489;49.600;6.138;2022-11-06T00:48:31;11.95;;;5.75;;
37645;SDS011;23489;49.600;6.138;2022-11-06T00:51:03;12.38;;;5.75;;
37645;SDS011;23489;49.600;6.138;2022-11-06T00:53:34;10.30;;;5.90;;
37645;SDS011;23489;49.600;6.138;2022-11-06T00:56:04;16.90;;;6.45;;
37645;SDS011;23489;49.600;6.138;2022-11-06T00:58:35;9.90;;;5.95;;
37645;SDS011;23489;49.600;6.138;2022-11-06T01:01:05;11.18;;;5.85;;
37645;SDS011;23489;49.600;6.138;2022-11-06T01:03:30;14.23;;;6.70;;
37645;SDS011;23489;49.600;6.138;2022-11-06T01:06:02;13.32;;;7.10;;
37645;SDS011;23489;49.600;6.138;2022-11-06T01:08:35;12.63;;;8.13;;
37645;SDS011;23489;49.600;6.138;2022-11-06T01:11:04;16.73;;;8.43;;
37645;SDS011;23489;49.600;6.138;2022-11-06T01:13:34;20.73;;;9.88;;
37645;SDS011;23489;49.600;6.138;2022-11-06T01:16:00;18.50;;;9.80;;
37645;SDS011;23489;49.600;6.138;2022-11-06T01:18:26;17.67;;;10.55;;
37645;SDS011;23489;49.600;6.138;2022-11-06T01:20:51;17.60;;;10.00;;
37645;SDS011;23489;49.600;6.138;2022-11-06T01:23:17;16.17;;;10.50;;
37645;SDS011;23489;49.600;6.138;2022-11-06T01:25:42;17.63;;;10.50;;
37645;SDS011;23489;49.600;6.138;2022-11-06T01:28:08;16.45;;;9.80;;
37645;SDS011;23489;49.600;6.138;2022-11-06T01:30:36;15.63;;;9.40;;
37645;SDS011;23489;49.600;6.138;2022-11-06T01:33:02;14.63;;;9.05;;
37645;SDS011;23489;49.600;6.138;2022-11-06T01:35:28;20.42;;;8.65;;
37645;SDS011;23489;49.600;6.138;2022-11-06T01:37:53;17.27;;;10.27;;
37645;SDS011;23489;49.600;6.138;2022-11-06T01:40:19;15.45;;;9.20;;
37645;SDS011;23489;49.600;6.138;2022-11-06T01:42:44;17.33;;;9.32;;
37645;SDS011;23489;49.600;6.138;2022-11-06T01:45:25;20.42;;;8.82;;
37645;SDS011;23489;49.600;6.138;2022-11-06T01:47:57;15.98;;;9.23;;
37645;SDS011;23489;49.600;6.138;2022-11-06T01:50:23;14.20;;;9.13;;
37645;SDS011;23489;49.600;6.138;2022-11-06T01:52:50;13.93;;;8.75;;
37645;SDS011;23489;49.600;6.138;2022-11-06T01:55:18;13.75;;;8.40;;
37645;SDS011;23489;49.600;6.138;2022-11-06T01:57:54;15.20;;;8.88;;
37645;SDS011;23489;49.600;6.138;2022-11-06T02:00:21;14.43;;;9.07;;
37645;SDS011;23489;49.600;6.138;2022-11-06T02:02:47;19.42;;;9.50;;
37645;SDS011;23489;49.600;6.138;2022-11-06T02:05:15;13.55;;;9.18;;
37645;SDS011;23489;49.600;6.138;2022-11-06T02:07:41;15.07;;;9.20;;
37645;SDS011;23489;49.600;6.138;2022-11-06T02:10:07;14.95;;;9.55;;
37645;SDS011;23489;49.600;6.138;2022-11-06T02:12:39;18.55;;;9.38;;
37645;SDS011;23489;49.600;6.138;2022-11-06T02:15:14;16.08;;;9.18;;
37645;SDS011;23489;49.600;6.138;2022-11-06T02:26:28;27.05;;;11.35;;
37645;SDS011;23489;49.600;6.138;2022-11-06T02:29:21;23.65;;;11.55;;
37645;SDS011;23489;49.600;6.138;2022-11-06T02:32:00;33.05;;;12.60;;
37645;SDS011;23489;49.600;6.138;2022-11-06T02:34:31;22.02;;;11.80;;
37645;SDS011;23489;49.600;6.138;2022-11-06T02:37:01;23.50;;;12.55;;
37645;SDS011;23489;49.600;6.138;2022-11-06T02:39:31;50.47;;;12.18;;
37645;SDS011;23489;49.600;6.138;2022-11-06T02:42:01;40.03;;;12.30;;
37645;SDS011;23489;49.600;6.138;2022-11-06T02:44:29;19.80;;;10.93;;
37645;SDS011;23489;49.600;6.138;2022-11-06T02:47:00;44.65;;;11.95;;
37645;SDS011;23489;49.600;6.138;2022-11-06T02:49:37;30.63;;;11.48;;
37645;SDS011;23489;49.600;6.138;2022-11-06T02:52:18;30.13;;;13.32;;
37645;SDS011;23489;49.600;6.138;2022-11-06T02:54:56;28.30;;;12.98;;
37645;SDS011;23489;49.600;6.138;2022-11-06T02:57:32;29.58;;;13.50;;
37645;SDS011;23489;49.600;6.138;2022-11-06T03:00:03;25.00;;;12.38;;
37645;SDS011;23489;49.600;6.138;2022-11-06T03:02:33;24.95;;;11.77;;
37645;SDS011;23489;49.600;6.138;2022-11-06T03:05:09;24.80;;;11.75;;
37645;SDS011;23489;49.600;6.138;2022-11-06T03:10:38;23.17;;;11.68;;
37645;SDS011;23489;49.600;6.138;2022-11-06T03:15:42;23.40;;;10.52;;
37645;SDS011;23489;49.600;6.138;2022-11-06T03:18:34;20.08;;;10.95;;
37645;SDS011;23489;49.600;6.138;2022-11-06T03:24:47;22.30;;;10.95;;
37645;SDS011;23489;49.600;6.138;2022-11-06T03:27:31;23.67;;;10.18;;
37645;SDS011;23489;49.600;6.138;2022-11-06T03:30:00;20.83;;;11.05;;
37645;SDS011;23489;49.600;6.138;2022-11-06T03:32:36;23.95;;;10.90;;
37645;SDS011;23489;49.600;6.138;2022-11-06T03:37:55;21.88;;;10.65;;
37645;SDS011;23489;49.600;6.138;2022-11-06T03:40:26;24.88;;;10.15;;
37645;SDS011;23489;49.600;6.138;2022-11-06T03:42:56;16.15;;;9.15;;
37645;SDS011;23489;49.600;6.138;2022-11-06T03:45:26;16.77;;;8.73;;
37645;SDS011;23489;49.600;6.138;2022-11-06T03:47:56;22.63;;;10.18;;
37645;SDS011;23489;49.600;6.138;2022-11-06T03:50:30;14.27;;;8.50;;
37645;SDS011;23489;49.600;6.138;2022-11-06T03:53:20;20.33;;;8.45;;
37645;SDS011;23489;49.600;6.138;2022-11-06T03:55:51;24.65;;;7.75;;
37645;SDS011;23489;49.600;6.138;2022-11-06T03:58:31;27.33;;;7.68;;
37645;SDS011;23489;49.600;6.138;2022-11-06T04:01:02;19.60;;;7.55;;
37645;SDS011;23489;49.600;6.138;2022-11-06T04:06:12;15.52;;;7.50;;
37645;SDS011;23489;49.600;6.138;2022-11-06T04:08:44;20.75;;;8.82;;
37645;SDS011;23489;49.600;6.138;2022-11-06T04:11:32;24.05;;;8.32;;
37645;SDS011;23489;49.600;6.138;2022-11-06T04:14:18;24.77;;;8.68;;
37645;SDS011;23489;49.600;6.138;2022-11-06T04:16:47;18.27;;;8.15;;
37645;SDS011;23489;49.600;6.138;2022-11-06T04:19:18;34.05;;;9.35;;
37645;SDS011;23489;49.600;6.138;2022-11-06T04:30:17;15.20;;;7.95;;
37645;SDS011;23489;49.600;6.138;2022-11-06T05:13:02;74.93;;;23.73;;
37645;SDS011;23489;49.600;6.138;2022-11-06T05:15:28;58.07;;;24.83;;
37645;SDS011;23489;49.600;6.138;2022-11-06T05:17:53;47.67;;;24.15;;
37645;SDS011;23489;49.600;6.138;2022-11-06T05:20:21;43.92;;;21.83;;
37645;SDS011;23489;49.600;6.138;2022-11-06T05:22:46;38.60;;;20.67;;
37645;SDS011;23489;49.600;6.138;2022-11-06T05:25:29;40.20;;;21.13;;
37645;SDS011;23489;49.600;6.138;2022-11-06T05:27:57;36.03;;;19.85;;
37645;SDS011;23489;49.600;6.138;2022-11-06T05:30:23;30.58;;;19.05;;
37645;SDS011;23489;49.600;6.138;2022-11-06T05:32:49;33.40;;;18.77;;
37645;SDS011;23489;49.600;6.138;2022-11-06T05:35:16;30.20;;;17.20;;
37645;SDS011;23489;49.600;6.138;2022-11-06T05:37:42;27.73;;;16.47;;
37645;SDS011;23489;49.600;6.138;2022-11-06T05:40:08;25.45;;;15.82;;
37645;SDS011;23489;49.600;6.138;2022-11-06T05:42:38;25.90;;;14.50;;
37645;SDS011;23489;49.600;6.138;2022-11-06T05:45:04;24.92;;;14.60;;
37645;SDS011;23489;49.600;6.138;2022-11-06T05:47:30;24.08;;;14.77;;
37645;SDS011;23489;49.600;6.138;2022-11-06T05:49:56;24.10;;;14.57;;
37645;SDS011;23489;49.600;6.138;2022-11-06T05:52:22;23.35;;;14.13;;
37645;SDS011;23489;49.600;6.138;2022-11-06T05:54:47;24.53;;;14.47;;
37645;SDS011;23489;49.600;6.138;2022-11-06T05:57:13;30.75;;;14.90;;
37645;SDS011;23489;49.600;6.138;2022-11-06T05:59:39;25.47;;;15.27;;
37645;SDS011;23489;49.600;6.138;2022-11-06T06:02:04;25.55;;;14.98;;
37645;SDS011;23489;49.600;6.138;2022-11-06T06:04:30;27.17;;;14.77;;
37645;SDS011;23489;49.600;6.138;2022-11-06T06:06:56;28.67;;;14.80;;
37645;SDS011;23489;49.600;6.138;2022-11-06T06:09:21;24.60;;;14.80;;
37645;SDS011;23489;49.600;6.138;2022-11-06T06:11:50;25.00;;;15.27;;
37645;SDS011;23489;49.600;6.138;2022-11-06T06:14:16;26.77;;;15.80;;
37645;SDS011;23489;49.600;6.138;2022-11-06T06:16:42;27.55;;;16.17;;
37645;SDS011;23489;49.600;6.138;2022-11-06T06:19:08;27.85;;;13.90;;
37645;SDS011;23489;49.600;6.138;2022-11-06T06:21:34;23.67;;;12.70;;
37645;SDS011;23489;49.600;6.138;2022-11-06T06:24:01;22.02;;;12.23;;
37645;SDS011;23489;49.600;6.138;2022-11-06T06:26:28;22.83;;;11.80;;
37645;SDS011;23489;49.600;6.138;2022-11-06T06:28:53;23.83;;;12.38;;
37645;SDS011;23489;49.600;6.138;2022-11-06T06:38:36;23.70;;;10.38;;
37645;SDS011;23489;49.600;6.138;2022-11-06T06:41:02;28.23;;;12.07;;
37645;SDS011;23489;49.600;6.138;2022-11-06T06:43:29;20.70;;;10.90;;
37645;SDS011;23489;49.600;6.138;2022-11-06T06:45:59;26.98;;;11.15;;
37645;SDS011;23489;49.600;6.138;2022-11-06T06:48:25;27.02;;;12.98;;
37645;SDS011;23489;49.600;6.138;2022-11-06T06:50:52;25.25;;;13.13;;
37645;SDS011;23489;49.600;6.138;2022-11-06T06:53:20;24.25;;;13.52;;
37645;SDS011;23489;49.600;6.138;2022-11-06T06:55:46;24.67;;;12.82;;
37645;SDS011;23489;49.600;6.138;2022-11-06T06:58:12;29.35;;;12.68;;
37645;SDS011;23489;49.600;6.138;2022-11-06T07:00:38;28.75;;;13.27;;
37645;SDS011;23489;49.600;6.138;2022-11-06T07:03:03;24.73;;;13.50;;
37645;SDS011;23489;49.600;6.138;2022-11-06T07:05:29;26.33;;;13.50;;
37645;SDS011;23489;49.600;6.138;2022-11-06T07:07:55;26.52;;;14.82;;
37645;SDS011;23489;49.600;6.138;2022-11-06T07:10:21;28.05;;;14.57;;
37645;SDS011;23489;49.600;6.138;2022-11-06T07:12:47;30.27;;;17.98;;
37645;SDS011;23489;49.600;6.138;2022-11-06T07:15:13;25.55;;;14.48;;
37645;SDS011;23489;49.600;6.138;2022-11-06T07:17:39;24.17;;;14.30;;
37645;SDS011;23489;49.600;6.138;2022-11-06T07:20:04;23.90;;;13.90;;
37645;SDS011;23489;49.600;6.138;2022-11-06T07:22:31;23.98;;;14.05;;
37645;SDS011;23489;49.600;6.138;2022-11-06T07:24:56;23.38;;;13.52;;
37645;SDS011;23489;49.600;6.138;2022-11-06T07:27:22;23.77;;;14.75;;
37645;SDS011;23489;49.600;6.138;2022-11-06T07:29:48;22.52;;;13.93;;
37645;SDS011;23489;49.600;6.138;2022-11-06T07:32:13;24.73;;;13.07;;
37645;SDS011;23489;49.600;6.138;2022-11-06T07:34:39;19.10;;;11.65;;
37645;SDS011;23489;49.600;6.138;2022-11-06T07:37:05;21.02;;;11.70;;
37645;SDS011;23489;49.600;6.138;2022-11-06T07:39:31;20.65;;;12.52;;
37645;SDS011;23489;49.600;6.138;2022-11-06T07:41:57;18.65;;;11.82;;
37645;SDS011;23489;49.600;6.138;2022-11-06T07:44:31;20.38;;;10.32;;
37645;SDS011;23489;49.600;6.138;2022-11-06T07:46:57;18.25;;;11.20;;
37645;SDS011;23489;49.600;6.138;2022-11-06T07:49:22;19.67;;;10.05;;
37645;SDS011;23489;49.600;6.138;2022-11-06T07:51:48;16.48;;;9.43;;
37645;SDS011;23489;49.600;6.138;2022-11-06T07:54:13;17.52;;;9.43;;
37645;SDS011;23489;49.600;6.138;2022-11-06T07:56:39;16.33;;;8.88;;
37645;SDS011;23489;49.600;6.138;2022-11-06T07:59:04;16.48;;;9.18;;
37645;SDS011;23489;49.600;6.138;2022-11-06T08:01:30;15.05;;;8.48;;
37645;SDS011;23489;49.600;6.138;2022-11-06T08:03:56;15.82;;;9.77;;
37645;SDS011;23489;49.600;6.138;2022-11-06T08:06:21;14.20;;;8.70;;
37645;SDS011;23489;49.600;6.138;2022-11-06T08:08:47;14.15;;;9.02;;
37645;SDS011;23489;49.600;6.138;2022-11-06T08:11:13;14.45;;;9.50;;
37645;SDS011;23489;49.600;6.138;2022-11-06T08:13:38;14.30;;;8.65;;
37645;SDS011;23489;49.600;6.138;2022-11-06T08:16:05;12.75;;;8.90;;
37645;SDS011;23489;49.600;6.138;2022-11-06T08:18:32;12.10;;;8.45;;
37645;SDS011;23489;49.600;6.138;2022-11-06T08:20:58;13.25;;;7.95;;
37645;SDS011;23489;49.600;6.138;2022-11-06T08:23:24;11.98;;;8.40;;
37645;SDS011;23489;49.600;6.138;2022-11-06T08:25:57;12.07;;;8.23;;
37645;SDS011;23489;49.600;6.138;2022-11-06T08:28:24;12.57;;;8.23;;
37645;SDS011;23489;49.600;6.138;2022-11-06T08:30:50;13.27;;;7.55;;
37645;SDS011;23489;49.600;6.138;2022-11-06T08:33:16;13.60;;;8.63;;
37645;SDS011;23489;49.600;6.138;2022-11-06T08:35:42;14.52;;;8.52;;
37645;SDS011;23489;49.600;6.138;2022-11-06T08:38:07;11.48;;;8.65;;
37645;SDS011;23489;49.600;6.138;2022-11-06T08:40:34;14.70;;;8.13;;
37645;SDS011;23489;49.600;6.138;2022-11-06T08:43:03;11.52;;;7.40;;
37645;SDS011;23489;49.600;6.138;2022-11-06T08:45:30;11.85;;;8.55;;
37645;SDS011;23489;49.600;6.138;2022-11-06T08:48:00;13.35;;;8.02;;
37645;SDS011;23489;49.600;6.138;2022-11-06T08:50:27;11.70;;;8.18;;
37645;SDS011;23489;49.600;6.138;2022-11-06T08:52:57;15.60;;;7.95;;
37645;SDS011;23489;49.600;6.138;2022-11-06T08:55:25;11.73;;;8.40;;
37645;SDS011;23489;49.600;6.138;2022-11-06T08:57:53;13.20;;;8.13;;
37645;SDS011;23489;49.600;6.138;2022-11-06T09:00:19;13.55;;;7.65;;
37645;SDS011;23489;49.600;6.138;2022-11-06T09:02:45;10.20;;;7.82;;
37645;SDS011;23489;49.600;6.138;2022-11-06T09:05:11;11.27;;;7.47;;
37645;SDS011;23489;49.600;6.138;2022-11-06T09:07:36;12.18;;;7.35;;
37645;SDS011;23489;49.600;6.138;2022-11-06T09:10:02;12.32;;;7.20;;
37645;SDS011;23489;49.600;6.138;2022-11-06T09:12:28;13.25;;;7.25;;
37645;SDS011;23489;49.600;6.138;2022-11-06T09:14:54;12.82;;;7.28;;
37645;SDS011;23489;49.600;6.138;2022-11-06T09:17:20;16.73;;;8.32;;
37645;SDS011;23489;49.600;6.138;2022-11-06T09:19:51;15.00;;;7.53;;
37645;SDS011;23489;49.600;6.138;2022-11-06T09:22:17;11.85;;;7.63;;
37645;SDS011;23489;49.600;6.138;2022-11-06T09:24:43;13.15;;;8.05;;
37645;SDS011;23489;49.600;6.138;2022-11-06T09:27:09;13.88;;;7.30;;
37645;SDS011;23489;49.600;6.138;2022-11-06T09:29:35;10.75;;;7.63;;
37645;SDS011;23489;49.600;6.138;2022-11-06T09:32:05;10.13;;;6.90;;
37645;SDS011;23489;49.600;6.138;2022-11-06T09:34:31;14.25;;;6.45;;
37645;SDS011;23489;49.600;6.138;2022-11-06T09:36:57;12.02;;;7.18;;
37645;SDS011;23489;49.600;6.138;2022-11-06T09:39:25;9.48;;;6.72;;
37645;SDS011;23489;49.600;6.138;2022-11-06T09:41:57;11.70;;;6.47;;
37645;SDS011;23489;49.600;6.138;2022-11-06T09:47:31;9.85;;;6.85;;
37645;SDS011;23489;49.600;6.138;2022-11-06T09:50:01;12.43;;;7.03;;
37645;SDS011;23489;49.600;6.138;2022-11-06T09:52:41;9.88;;;5.85;;
37645;SDS011;23489;49.600;6.138;2022-11-06T09:55:23;11.68;;;7.78;;
37645;SDS011;23489;49.600;6.138;2022-11-06T09:58:03;10.70;;;7.43;;
37645;SDS011;23489;49.600;6.138;2022-11-06T10:00:35;10.85;;;7.43;;
37645;SDS011;23489;49.600;6.138;2022-11-06T10:03:03;11.55;;;7.63;;
37645;SDS011;23489;49.600;6.138;2022-11-06T10:05:37;12.75;;;8.25;;
37645;SDS011;23489;49.600;6.138;2022-11-06T10:08:06;9.97;;;7.73;;
37645;SDS011;23489;49.600;6.138;2022-11-06T10:16:13;9.93;;;6.78;;
37645;SDS011;23489;49.600;6.138;2022-11-06T10:24:20;9.73;;;6.97;;
37645;SDS011;23489;49.600;6.138;2022-11-06T10:27:07;9.65;;;7.10;;
37645;SDS011;23489;49.600;6.138;2022-11-06T10:38:09;9.15;;;6.70;;
37645;SDS011;23489;49.600;6.138;2022-11-06T10:40:38;7.88;;;6.10;;
37645;SDS011;23489;49.600;6.138;2022-11-06T10:43:21;8.23;;;6.32;;
37645;SDS011;23489;49.600;6.138;2022-11-06T10:45:55;8.90;;;6.20;;
37645;SDS011;23489;49.600;6.138;2022-11-06T10:48:30;7.57;;;6.25;;
37645;SDS011;23489;49.600;6.138;2022-11-06T10:53:30;7.97;;;5.87;;
37645;SDS011;23489;49.600;6.138;2022-11-06T10:56:33;9.90;;;5.97;;
37645;SDS011;23489;49.600;6.138;2022-11-06T10:59:04;12.35;;;6.03;;
37645;SDS011;23489;49.600;6.138;2022-11-06T11:01:31;8.87;;;6.40;;
37645;SDS011;23489;49.600;6.138;2022-11-06T11:03:57;9.43;;;5.78;;
37645;SDS011;23489;49.600;6.138;2022-11-06T11:06:23;7.75;;;5.85;;
37645;SDS011;23489;49.600;6.138;2022-11-06T11:08:49;11.03;;;6.40;;
37645;SDS011;23489;49.600;6.138;2022-11-06T11:11:23;8.00;;;5.50;;
37645;SDS011;23489;49.600;6.138;2022-11-06T11:16:28;9.15;;;5.57;;
37645;SDS011;23489;49.600;6.138;2022-11-06T11:19:13;9.88;;;6.07;;
37645;SDS011;23489;49.600;6.138;2022-11-06T11:21:42;11.05;;;6.43;;
37645;SDS011;23489;49.600;6.138;2022-11-06T11:24:17;12.02;;;6.18;;
37645;SDS011;23489;49.600;6.138;2022-11-06T11:26:44;8.47;;;5.80;;
37645;SDS011;23489;49.600;6.138;2022-11-06T11:29:22;8.48;;;5.80;;
37645;SDS011;23489;49.600;6.138;2022-11-06T11:31:54;7.82;;;5.78;;
37645;SDS011;23489;49.600;6.138;2022-11-06T11:34:26;9.18;;;5.80;;
37645;SDS011;23489;49.600;6.138;2022-11-06T11:37:00;9.32;;;5.07;;
37645;SDS011;23489;49.600;6.138;2022-11-06T11:39:31;9.95;;;6.07;;
37645;SDS011;23489;49.600;6.138;2022-11-06T11:42:22;9.52;;;5.65;;
37645;SDS011;23489;49.600;6.138;2022-11-06T11:47:33;8.77;;;5.78;;
37645;SDS011;23489;49.600;6.138;2022-11-06T11:53:01;6.90;;;4.60;;
37645;SDS011;23489;49.600;6.138;2022-11-06T11:55:37;6.68;;;4.50;;
37645;SDS011;23489;49.600;6.138;2022-11-06T11:58:22;6.60;;;4.35;;
37645;SDS011;23489;49.600;6.138;2022-11-06T12:00:56;5.40;;;3.80;;
37645;SDS011;23489;49.600;6.138;2022-11-06T12:03:25;7.88;;;4.63;;
37645;SDS011;23489;49.600;6.138;2022-11-06T12:05:53;8.00;;;5.05;;
37645;SDS011;23489;49.600;6.138;2022-11-06T12:08:27;6.78;;;5.13;;
37645;SDS011;23489;49.600;6.138;2022-11-06T12:10:57;9.68;;;5.97;;
37645;SDS011;23489;49.600;6.138;2022-11-06T12:13:27;6.33;;;4.77;;
37645;SDS011;23489;49.600;6.138;2022-11-06T12:15:54;6.90;;;4.70;;
37645;SDS011;23489;49.600;6.138;2022-11-06T12:18:32;9.10;;;5.40;;
37645;SDS011;23489;49.600;6.138;2022-11-06T12:21:05;6.40;;;4.70;;
37645;SDS011;23489;49.600;6.138;2022-11-06T12:26:34;6.97;;;4.72;;
37645;SDS011;23489;49.600;6.138;2022-11-06T12:29:15;6.93;;;4.28;;
37645;SDS011;23489;49.600;6.138;2022-11-06T12:34:22;6.85;;;3.80;;
37645;SDS011;23489;49.600;6.138;2022-11-06T12:37:02;5.22;;;3.83;;
37645;SDS011;23489;49.600;6.138;2022-11-06T12:42:42;6.53;;;3.33;;
37645;SDS011;23489;49.600;6.138;2022-11-06T12:45:22;4.45;;;3.00;;
37645;SDS011;23489;49.600;6.138;2022-11-06T12:48:01;6.80;;;3.40;;
37645;SDS011;23489;49.600;6.138;2022-11-06T12:53:09;5.50;;;2.95;;
37645;SDS011;23489;49.600;6.138;2022-11-06T12:55:41;3.28;;;2.60;;
37645;SDS011;23489;49.600;6.138;2022-11-06T13:03:48;3.88;;;2.50;;
37645;SDS011;23489;49.600;6.138;2022-11-06T13:14:59;4.53;;;2.78;;
37645;SDS011;23489;49.600;6.138;2022-11-06T13:17:29;6.60;;;2.38;;
37645;SDS011;23489;49.600;6.138;2022-11-06T13:20:10;6.35;;;2.50;;
37645;SDS011;23489;49.600;6.138;2022-11-06T13:22:40;4.72;;;2.65;;
37645;SDS011;23489;49.600;6.138;2022-11-06T13:30:32;6.35;;;2.25;;
37645;SDS011;23489;49.600;6.138;2022-11-06T13:35:36;4.53;;;2.45;;
37645;SDS011;23489;49.600;6.138;2022-11-06T13:38:07;4.43;;;2.60;;
37645;SDS011;23489;49.600;6.138;2022-11-06T13:40:41;4.45;;;2.88;;
37645;SDS011;23489;49.600;6.138;2022-11-06T13:48:39;3.97;;;2.75;;
37645;SDS011;23489;49.600;6.138;2022-11-06T13:59:30;4.15;;;2.78;;
37645;SDS011;23489;49.600;6.138;2022-11-06T14:07:25;5.50;;;2.78;;
37645;SDS011;23489;49.600;6.138;2022-11-06T14:09:54;4.07;;;2.40;;
37645;SDS011;23489;49.600;6.138;2022-11-06T14:12:20;4.57;;;2.47;;
37645;SDS011;23489;49.600;6.138;2022-11-06T14:14:47;3.85;;;2.40;;
37645;SDS011;23489;49.600;6.138;2022-11-06T14:24:51;5.03;;;2.28;;
37645;SDS011;23489;49.600;6.138;2022-11-06T14:29:52;4.63;;;2.55;;
37645;SDS011;23489;49.600;6.138;2022-11-06T14:34:55;4.55;;;2.40;;
37645;SDS011;23489;49.600;6.138;2022-11-06T14:42:26;2.92;;;2.55;;
37645;SDS011;23489;49.600;6.138;2022-11-06T14:52:55;3.08;;;2.45;;
37645;SDS011;23489;49.600;6.138;2022-11-06T15:00:56;4.80;;;2.70;;
37645;SDS011;23489;49.600;6.138;2022-11-06T15:16:38;2.85;;;2.53;;
37645;SDS011;23489;49.600;6.138;2022-11-06T15:19:17;3.75;;;2.60;;
37645;SDS011;23489;49.600;6.138;2022-11-06T15:21:48;5.78;;;2.80;;
37645;SDS011;23489;49.600;6.138;2022-11-06T15:24:42;4.40;;;2.90;;
37645;SDS011;23489;49.600;6.138;2022-11-06T15:27:19;6.13;;;2.88;;
37645;SDS011;23489;49.600;6.138;2022-11-06T15:29:53;4.53;;;3.15;;
37645;SDS011;23489;49.600;6.138;2022-11-06T15:32:24;6.85;;;2.78;;
37645;SDS011;23489;49.600;6.138;2022-11-06T15:35:07;3.97;;;2.72;;
37645;SDS011;23489;49.600;6.138;2022-11-06T15:37:51;6.18;;;2.63;;
37645;SDS011;23489;49.600;6.138;2022-11-06T15:43:00;5.70;;;2.33;;
37645;SDS011;23489;49.600;6.138;2022-11-06T15:45:46;3.28;;;2.38;;
37645;SDS011;23489;49.600;6.138;2022-11-06T15:48:38;3.58;;;2.72;;
37645;SDS011;23489;49.600;6.138;2022-11-06T15:51:18;5.65;;;2.97;;
37645;SDS011;23489;49.600;6.138;2022-11-06T15:53:45;3.13;;;2.50;;
37645;SDS011;23489;49.600;6.138;2022-11-06T15:56:11;6.40;;;2.75;;
37645;SDS011;23489;49.600;6.138;2022-11-06T15:58:39;5.25;;;3.15;;
37645;SDS011;23489;49.600;6.138;2022-11-06T16:01:06;6.10;;;2.90;;
37645;SDS011;23489;49.600;6.138;2022-11-06T16:03:41;6.07;;;3.33;;
37645;SDS011;23489;49.600;6.138;2022-11-06T16:06:15;4.50;;;3.03;;
37645;SDS011;23489;49.600;6.138;2022-11-06T16:08:42;6.30;;;3.50;;
37645;SDS011;23489;49.600;6.138;2022-11-06T16:11:15;5.40;;;3.50;;
37645;SDS011;23489;49.600;6.138;2022-11-06T16:13:43;3.80;;;3.47;;
37645;SDS011;23489;49.600;6.138;2022-11-06T16:16:31;5.50;;;3.20;;
37645;SDS011;23489;49.600;6.138;2022-11-06T16:19:05;3.63;;;3.20;;
37645;SDS011;23489;49.600;6.138;2022-11-06T16:21:47;7.53;;;3.45;;
37645;SDS011;23489;49.600;6.138;2022-11-06T16:24:17;6.07;;;3.60;;
37645;SDS011;23489;49.600;6.138;2022-11-06T16:26:47;5.63;;;3.63;;
37645;SDS011;23489;49.600;6.138;2022-11-06T16:29:35;6.97;;;4.32;;
37645;SDS011;23489;49.600;6.138;2022-11-06T16:34:41;8.50;;;4.78;;
37645;SDS011;23489;49.600;6.138;2022-11-06T16:39:48;6.53;;;3.92;;
37645;SDS011;23489;49.600;6.138;2022-11-06T16:45:19;10.77;;;6.78;;
37645;SDS011;23489;49.600;6.138;2022-11-06T16:53:20;14.00;;;10.32;;
37645;SDS011;23489;49.600;6.138;2022-11-06T16:56:06;12.32;;;10.10;;
37645;SDS011;23489;49.600;6.138;2022-11-06T16:58:34;9.48;;;7.45;;
37645;SDS011;23489;49.600;6.138;2022-11-06T17:01:14;7.82;;;5.30;;
37645;SDS011;23489;49.600;6.138;2022-11-06T17:03:49;10.57;;;5.28;;
37645;SDS011;23489;49.600;6.138;2022-11-06T17:06:23;10.43;;;5.90;;
37645;SDS011;23489;49.600;6.138;2022-11-06T17:08:56;9.00;;;5.80;;
37645;SDS011;23489;49.600;6.138;2022-11-06T17:11:25;9.18;;;5.95;;
37645;SDS011;23489;49.600;6.138;2022-11-06T17:13:51;9.27;;;5.45;;
37645;SDS011;23489;49.600;6.138;2022-11-06T17:16:18;6.25;;;5.20;;
37645;SDS011;23489;49.600;6.138;2022-11-06T17:18:49;7.38;;;5.30;;
37645;SDS011;23489;49.600;6.138;2022-11-06T17:23:45;10.60;;;5.75;;
37645;SDS011;23489;49.600;6.138;2022-11-06T17:26:22;11.85;;;6.03;;
37645;SDS011;23489;49.600;6.138;2022-11-06T17:28:52;11.85;;;6.22;;
37645;SDS011;23489;49.600;6.138;2022-11-06T17:31:22;14.07;;;7.15;;
37645;SDS011;23489;49.600;6.138;2022-11-06T17:33:48;10.52;;;6.35;;
37645;SDS011;23489;49.600;6.138;2022-11-06T17:36:18;8.32;;;6.05;;
37645;SDS011;23489;49.600;6.138;2022-11-06T17:38:44;6.60;;;4.30;;
37645;SDS011;23489;49.600;6.138;2022-11-06T17:41:10;5.30;;;4.18;;
37645;SDS011;23489;49.600;6.138;2022-11-06T17:43:36;8.00;;;4.80;;
37645;SDS011;23489;49.600;6.138;2022-11-06T17:46:02;5.60;;;4.63;;
37645;SDS011;23489;49.600;6.138;2022-11-06T17:48:28;8.40;;;4.93;;
37645;SDS011;23489;49.600;6.138;2022-11-06T17:50:54;6.38;;;5.03;;
37645;SDS011;23489;49.600;6.138;2022-11-06T17:53:38;6.28;;;4.80;;
37645;SDS011;23489;49.600;6.138;2022-11-06T17:56:04;6.45;;;4.05;;
37645;SDS011;23489;49.600;6.138;2022-11-06T17:58:31;6.13;;;4.72;;
37645;SDS011;23489;49.600;6.138;2022-11-06T18:01:08;5.85;;;4.53;;
37645;SDS011;23489;49.600;6.138;2022-11-06T18:03:35;7.30;;;4.88;;
37645;SDS011;23489;49.600;6.138;2022-11-06T18:06:11;8.00;;;5.30;;
37645;SDS011;23489;49.600;6.138;2022-11-06T18:08:38;7.05;;;4.32;;
37645;SDS011;23489;49.600;6.138;2022-11-06T18:11:04;4.55;;;3.85;;
37645;SDS011;23489;49.600;6.138;2022-11-06T18:13:31;7.20;;;4.35;;
37645;SDS011;23489;49.600;6.138;2022-11-06T18:15:57;6.38;;;3.63;;
37645;SDS011;23489;49.600;6.138;2022-11-06T18:18:23;5.45;;;3.75;;
37645;SDS011;23489;49.600;6.138;2022-11-06T18:20:49;5.88;;;3.33;;
37645;SDS011;23489;49.600;6.138;2022-11-06T18:23:16;7.60;;;3.58;;
37645;SDS011;23489;49.600;6.138;2022-11-06T18:25:51;4.10;;;3.63;;
37645;SDS011;23489;49.600;6.138;2022-11-06T18:28:20;5.40;;;2.95;;
37645;SDS011;23489;49.600;6.138;2022-11-06T18:30:46;6.95;;;3.72;;
37645;SDS011;23489;49.600;6.138;2022-11-06T18:33:13;4.80;;;3.67;;
37645;SDS011;23489;49.600;6.138;2022-11-06T18:35:39;4.85;;;3.58;;
37645;SDS011;23489;49.600;6.138;2022-11-06T18:38:05;6.55;;;4.00;;
37645;SDS011;23489;49.600;6.138;2022-11-06T18:40:30;6.32;;;4.20;;
37645;SDS011;23489;49.600;6.138;2022-11-06T18:42:56;6.65;;;3.67;;